createdAt,value
2018-09-26T00:00:58.961Z,1029.73
2018-09-26T00:01:58.878Z,1029.78
2018-09-26T00:02:58.801Z,1029.75
2018-09-26T00:03:58.719Z,1029.76
2018-09-26T00:04:58.649Z,1029.76
2018-09-26T00:05:58.559Z,1029.81
2018-09-26T00:06:58.485Z,1029.83
2018-09-26T00:07:58.405Z,1029.84
2018-09-26T00:08:58.327Z,1029.82
2018-09-26T00:09:58.296Z,1029.84
2018-09-26T00:10:58.171Z,1029.84
2018-09-26T00:11:58.093Z,1029.86
2018-09-26T00:12:58.016Z,1029.84
2018-09-26T00:13:57.937Z,1029.80
2018-09-26T00:14:57.873Z,1029.81
2018-09-26T00:15:57.789Z,1029.81
2018-09-26T00:16:57.695Z,1029.76
2018-09-26T00:17:57.672Z,1029.73
2018-09-26T00:18:57.541Z,1029.74
2018-09-26T00:19:57.466Z,1029.73
2018-09-26T00:20:57.386Z,1029.70
2018-09-26T00:21:57.306Z,1029.68
2018-09-26T00:22:57.235Z,1029.71
2018-09-26T00:23:57.150Z,1029.73
2018-09-26T00:24:57.067Z,1029.64
2018-09-26T00:25:56.994Z,1029.67
2018-09-26T00:26:56.914Z,1029.70
2018-09-26T00:27:56.841Z,1029.68
2018-09-26T00:28:56.759Z,1029.72
2018-09-26T00:29:56.678Z,1029.73
2018-09-26T00:30:56.600Z,1029.71
2018-09-26T00:31:56.521Z,1029.68
2018-09-26T00:32:56.452Z,1029.66
2018-09-26T00:33:56.370Z,1029.63
2018-09-26T00:34:56.285Z,1029.68
2018-09-26T00:35:56.269Z,1029.66
2018-09-26T00:36:56.130Z,1029.63
2018-09-26T00:37:56.051Z,1029.62
2018-09-26T00:38:55.972Z,1029.61
2018-09-26T00:39:55.897Z,1029.56
2018-09-26T00:40:55.827Z,1029.54
2018-09-26T00:41:55.736Z,1029.52
2018-09-26T00:42:55.657Z,1029.52
2018-09-26T00:43:55.580Z,1029.47
2018-09-26T00:44:55.504Z,1029.45
2018-09-26T00:45:55.424Z,1029.48
2018-09-26T00:46:55.343Z,1029.45
2018-09-26T00:47:55.272Z,1029.48
2018-09-26T00:48:55.190Z,1029.53
2018-09-26T00:49:55.107Z,1029.50
2018-09-26T00:50:55.030Z,1029.47
2018-09-26T00:51:54.952Z,1029.50
2018-09-26T00:52:54.872Z,1029.52
2018-09-26T00:53:54.793Z,1029.54
2018-09-26T00:54:54.719Z,1029.58
2018-09-26T00:55:54.636Z,1029.65
2018-09-26T00:56:54.565Z,1029.65
2018-09-26T00:57:54.479Z,1029.69
2018-09-26T00:58:54.400Z,1029.71
2018-09-26T00:59:54.322Z,1029.69
2018-09-26T01:00:54.244Z,1029.63
2018-09-26T01:01:54.164Z,1029.64
2018-09-26T01:02:54.084Z,1029.57
2018-09-26T01:03:54.009Z,1029.61
2018-09-26T01:04:53.928Z,1029.55
2018-09-26T01:05:53.847Z,1029.55
2018-09-26T01:06:53.773Z,1029.58
2018-09-26T01:07:53.691Z,1029.56
2018-09-26T01:08:53.612Z,1029.50
2018-09-26T01:09:53.535Z,1029.52
2018-09-26T01:10:53.458Z,1029.50
2018-09-26T01:11:53.375Z,1029.46
2018-09-26T01:12:53.302Z,1029.50
2018-09-26T01:13:53.218Z,1029.50
2018-09-26T01:14:53.142Z,1029.42
2018-09-26T01:15:53.063Z,1029.43
2018-09-26T01:16:52.981Z,1029.42
2018-09-26T01:17:52.903Z,1029.36
2018-09-26T01:18:52.824Z,1029.38
2018-09-26T01:19:52.744Z,1029.39
2018-09-26T01:20:52.667Z,1029.34
2018-09-26T01:21:52.589Z,1029.34
2018-09-26T01:22:52.508Z,1029.36
2018-09-26T01:23:52.429Z,1029.36
2018-09-26T01:24:52.352Z,1029.34
2018-09-26T01:25:52.272Z,1029.36
2018-09-26T01:26:52.195Z,1029.32
2018-09-26T01:27:52.117Z,1029.32
2018-09-26T01:28:52.036Z,1029.27
2018-09-26T01:29:51.957Z,1029.24
2018-09-26T01:30:51.879Z,1029.22
2018-09-26T01:31:51.801Z,1029.18
2018-09-26T01:32:51.723Z,1029.15
2018-09-26T01:33:51.643Z,1029.17
2018-09-26T01:34:51.562Z,1029.17
2018-09-26T01:35:51.484Z,1029.12
2018-09-26T01:36:51.405Z,1029.13
2018-09-26T01:37:51.326Z,1029.10
2018-09-26T01:38:51.248Z,1029.06
2018-09-26T01:39:51.175Z,1029.02
2018-09-26T01:40:51.090Z,1029.03
2018-09-26T01:41:51.011Z,1029.02
2018-09-26T01:42:50.933Z,1029.03
2018-09-26T01:43:50.854Z,1029.05
2018-09-26T01:44:50.775Z,1029.02
2018-09-26T01:45:50.694Z,1029.00
2018-09-26T01:46:50.616Z,1028.94
2018-09-26T01:47:50.537Z,1028.88
2018-09-26T01:48:50.461Z,1028.89
2018-09-26T01:49:50.377Z,1028.82
2018-09-26T01:50:50.302Z,1028.79
2018-09-26T01:51:50.222Z,1028.81
2018-09-26T01:52:50.144Z,1028.81
2018-09-26T01:53:50.120Z,1028.85
2018-09-26T01:54:49.983Z,1028.85
2018-09-26T01:55:49.905Z,1028.79
2018-09-26T01:56:49.827Z,1028.72
2018-09-26T01:57:49.747Z,1028.73
2018-09-26T01:58:49.665Z,1028.72
2018-09-26T01:59:49.589Z,1028.71
2018-09-26T02:00:49.509Z,1028.69
2018-09-26T02:01:49.432Z,1028.74
2018-09-26T02:02:49.352Z,1028.70
2018-09-26T02:03:49.276Z,1028.70
2018-09-26T02:04:49.195Z,1028.72
2018-09-26T02:05:49.114Z,1028.69
2018-09-26T02:06:49.036Z,1028.68
2018-09-26T02:07:48.963Z,1028.70
2018-09-26T02:08:48.879Z,1028.71
2018-09-26T02:09:48.799Z,1028.74
2018-09-26T02:10:48.720Z,1028.71
2018-09-26T02:11:48.642Z,1028.73
2018-09-26T02:12:48.566Z,1028.71
2018-09-26T02:13:48.483Z,1028.70
2018-09-26T02:14:48.404Z,1028.75
2018-09-26T02:15:48.326Z,1028.79
2018-09-26T02:16:48.245Z,1028.78
2018-09-26T02:17:48.167Z,1028.78
2018-09-26T02:18:48.088Z,1028.78
2018-09-26T02:19:48.013Z,1028.81
2018-09-26T02:20:47.930Z,1028.81
2018-09-26T02:21:47.851Z,1028.85
2018-09-26T02:22:47.770Z,1028.86
2018-09-26T02:23:47.744Z,1028.91
2018-09-26T02:24:47.615Z,1028.88
2018-09-26T02:25:47.537Z,1028.94
2018-09-26T02:26:47.457Z,1028.89
2018-09-26T02:27:47.378Z,1028.92
2018-09-26T02:28:47.302Z,1028.93
2018-09-26T02:29:47.215Z,1028.91
2018-09-26T02:30:47.142Z,1028.96
2018-09-26T02:31:47.068Z,1028.89
2018-09-26T02:32:46.981Z,1028.91
2018-09-26T02:33:46.906Z,1028.91
2018-09-26T02:34:46.866Z,1028.86
2018-09-26T02:35:46.745Z,1028.90
2018-09-26T02:36:46.667Z,1028.85
2018-09-26T02:37:46.585Z,1028.89
2018-09-26T02:38:46.505Z,1028.90
2018-09-26T02:39:46.425Z,1028.94
2018-09-26T02:40:46.359Z,1028.94
2018-09-26T02:41:46.267Z,1029.03
2018-09-26T02:42:46.190Z,1029.02
2018-09-26T02:43:46.109Z,1029.06
2018-09-26T02:44:46.031Z,1029.05
2018-09-26T02:45:45.950Z,1029.05
2018-09-26T02:46:45.876Z,1029.00
2018-09-26T02:47:45.793Z,1028.98
2018-09-26T02:48:45.716Z,1028.94
2018-09-26T02:49:45.634Z,1028.95
2018-09-26T02:50:45.557Z,1028.89
2018-09-26T02:51:45.476Z,1028.89
2018-09-26T02:52:45.397Z,1028.86
2018-09-26T02:53:45.319Z,1028.80
2018-09-26T02:54:45.241Z,1028.75
2018-09-26T02:55:45.201Z,1028.73
2018-09-26T02:56:45.084Z,1028.70
2018-09-26T02:57:45.002Z,1028.73
2018-09-26T02:58:44.921Z,1028.75
2018-09-26T02:59:44.841Z,1028.76
2018-09-26T03:00:44.763Z,1028.74
2018-09-26T03:01:44.683Z,1028.74
2018-09-26T03:02:44.607Z,1028.75
2018-09-26T03:03:44.529Z,1028.69
2018-09-26T03:04:44.451Z,1028.71
2018-09-26T03:05:44.367Z,1028.69
2018-09-26T03:06:44.289Z,1028.71
2018-09-26T03:07:44.209Z,1028.69
2018-09-26T03:08:44.142Z,1028.71
2018-09-26T03:09:44.049Z,1028.74
2018-09-26T03:10:43.990Z,1028.81
2018-09-26T03:11:43.896Z,1028.82
2018-09-26T03:12:43.811Z,1028.85
2018-09-26T03:13:43.732Z,1028.91
2018-09-26T03:14:43.652Z,1028.86
2018-09-26T03:15:43.575Z,1028.83
2018-09-26T03:16:43.497Z,1028.80
2018-09-26T03:17:43.508Z,1028.80
2018-09-26T03:18:43.337Z,1028.78
2018-09-26T03:19:43.256Z,1028.81
2018-09-26T03:20:43.176Z,1028.83
2018-09-26T03:21:43.098Z,1028.83
2018-09-26T03:22:43.018Z,1028.74
2018-09-26T03:23:42.941Z,1028.73
2018-09-26T03:24:42.858Z,1028.67
2018-09-26T03:25:42.783Z,1028.56
2018-09-26T03:26:42.701Z,1028.53
2018-09-26T03:27:42.620Z,1028.48
2018-09-26T03:28:42.547Z,1028.52
2018-09-26T03:29:42.462Z,1028.52
2018-09-26T03:30:42.404Z,1028.54
2018-09-26T03:31:42.305Z,1028.59
2018-09-26T03:32:42.225Z,1028.54
2018-09-26T03:33:42.173Z,1028.59
2018-09-26T03:34:42.086Z,1028.55
2018-09-26T03:35:41.998Z,1028.55
2018-09-26T03:36:41.951Z,1028.58
2018-09-26T03:37:41.825Z,1028.60
2018-09-26T03:38:41.747Z,1028.64
2018-09-26T03:39:41.675Z,1028.64
2018-09-26T03:40:41.588Z,1028.62
2018-09-26T03:41:41.509Z,1028.64
2018-09-26T03:42:41.428Z,1028.62
2018-09-26T03:43:41.350Z,1028.74
2018-09-26T03:44:41.271Z,1028.73
2018-09-26T03:45:41.193Z,1028.76
2018-09-26T03:46:41.112Z,1028.78
2018-09-26T03:47:41.031Z,1028.73
2018-09-26T03:48:40.953Z,1028.73
2018-09-26T03:49:40.877Z,1028.73
2018-09-26T03:50:40.800Z,1028.69
2018-09-26T03:51:40.718Z,1028.66
2018-09-26T03:52:40.639Z,1028.73
2018-09-26T03:53:40.557Z,1028.72
2018-09-26T03:54:40.477Z,1028.77
2018-09-26T03:55:40.401Z,1028.79
2018-09-26T03:56:40.318Z,1028.76
2018-09-26T03:57:40.238Z,1028.77
2018-09-26T03:58:40.173Z,1028.72
2018-09-26T03:59:40.078Z,1028.75
2018-09-26T04:00:40.000Z,1028.74
2018-09-26T04:01:39.922Z,1028.78
2018-09-26T04:02:39.840Z,1028.80
2018-09-26T04:03:39.763Z,1028.84
2018-09-26T04:04:39.680Z,1028.82
2018-09-26T04:05:39.602Z,1028.80
2018-09-26T04:06:39.523Z,1028.76
2018-09-26T04:07:39.439Z,1028.74
2018-09-26T04:08:39.365Z,1028.70
2018-09-26T04:09:39.285Z,1028.71
2018-09-26T04:10:39.205Z,1028.71
2018-09-26T04:11:39.125Z,1028.74
2018-09-26T04:12:39.200Z,1028.77
2018-09-26T04:13:38.965Z,1028.81
2018-09-26T04:14:38.886Z,1028.79
2018-09-26T04:15:38.884Z,1028.76
2018-09-26T04:16:38.732Z,1028.75
2018-09-26T04:17:38.649Z,1028.72
2018-09-26T04:18:38.569Z,1028.71
2018-09-26T04:19:38.489Z,1028.65
2018-09-26T04:20:38.409Z,1028.54
2018-09-26T04:21:38.331Z,1028.56
2018-09-26T04:22:38.250Z,1028.54
2018-09-26T04:23:38.172Z,1028.58
2018-09-26T04:24:38.093Z,1028.60
2018-09-26T04:25:38.021Z,1028.62
2018-09-26T04:26:38.034Z,1028.64
2018-09-26T04:27:37.889Z,1028.62
2018-09-26T04:28:37.775Z,1028.66
2018-09-26T04:29:37.694Z,1028.67
2018-09-26T04:30:37.615Z,1028.77
2018-09-26T04:31:37.536Z,1028.76
2018-09-26T04:32:37.474Z,1028.77
2018-09-26T04:33:37.481Z,1028.75
2018-09-26T04:34:37.295Z,1028.71
2018-09-26T04:35:37.221Z,1028.72
2018-09-26T04:36:37.136Z,1028.76
2018-09-26T04:37:37.058Z,1028.81
2018-09-26T04:38:37.062Z,1028.84
2018-09-26T04:39:36.898Z,1028.88
2018-09-26T04:40:36.821Z,1028.85
2018-09-26T04:41:36.738Z,1028.86
2018-09-26T04:42:36.662Z,1028.84
2018-09-26T04:43:36.584Z,1028.86
2018-09-26T04:44:36.499Z,1028.86
2018-09-26T04:45:36.420Z,1028.85
2018-09-26T04:46:36.340Z,1028.78
2018-09-26T04:47:36.262Z,1028.72
2018-09-26T04:48:36.183Z,1028.73
2018-09-26T04:49:36.102Z,1028.75
2018-09-26T04:50:36.024Z,1028.83
2018-09-26T04:51:35.943Z,1028.87
2018-09-26T04:52:35.863Z,1028.86
2018-09-26T04:53:35.785Z,1028.79
2018-09-26T04:54:35.706Z,1028.75
2018-09-26T04:55:35.650Z,1028.75
2018-09-26T04:56:35.549Z,1028.77
2018-09-26T04:57:35.466Z,1028.80
2018-09-26T04:58:35.386Z,1028.82
2018-09-26T04:59:35.308Z,1028.90
2018-09-26T05:00:35.230Z,1028.92
2018-09-26T05:01:35.155Z,1028.96
2018-09-26T05:02:35.069Z,1028.98
2018-09-26T05:03:34.989Z,1028.96
2018-09-26T05:04:34.912Z,1028.95
2018-09-26T05:05:34.829Z,1028.92
2018-09-26T05:06:34.750Z,1028.89
2018-09-26T05:07:34.669Z,1028.80
2018-09-26T05:08:34.587Z,1028.73
2018-09-26T05:09:34.512Z,1028.75
2018-09-26T05:10:34.429Z,1028.76
2018-09-26T05:11:34.350Z,1028.78
2018-09-26T05:12:34.274Z,1028.82
2018-09-26T05:13:34.189Z,1028.83
2018-09-26T05:14:34.164Z,1028.83
2018-09-26T05:15:34.028Z,1028.84
2018-09-26T05:16:33.953Z,1028.79
2018-09-26T05:17:33.872Z,1028.78
2018-09-26T05:18:33.792Z,1028.79
2018-09-26T05:19:33.711Z,1028.85
2018-09-26T05:20:33.638Z,1028.80
2018-09-26T05:21:33.554Z,1028.78
2018-09-26T05:22:33.478Z,1028.83
2018-09-26T05:23:33.397Z,1028.84
2018-09-26T05:24:33.313Z,1028.84
2018-09-26T05:25:33.235Z,1028.85
2018-09-26T05:26:33.155Z,1028.84
2018-09-26T05:27:33.073Z,1028.82
2018-09-26T05:28:33.000Z,1028.78
2018-09-26T05:29:32.916Z,1028.82
2018-09-26T05:30:32.835Z,1028.79
2018-09-26T05:31:32.756Z,1028.79
2018-09-26T05:32:32.680Z,1028.81
2018-09-26T05:33:32.596Z,1028.77
2018-09-26T05:34:32.517Z,1028.75
2018-09-26T05:35:32.438Z,1028.70
2018-09-26T05:36:32.360Z,1028.68
2018-09-26T05:37:32.277Z,1028.71
2018-09-26T05:38:32.201Z,1028.72
2018-09-26T05:39:32.118Z,1028.69
2018-09-26T05:40:32.039Z,1028.73
2018-09-26T05:41:31.974Z,1028.70
2018-09-26T05:42:31.878Z,1028.68
2018-09-26T05:43:31.807Z,1028.71
2018-09-26T05:44:31.720Z,1028.68
2018-09-26T05:45:31.650Z,1028.71
2018-09-26T05:46:31.561Z,1028.68
2018-09-26T05:47:31.482Z,1028.73
2018-09-26T05:48:31.405Z,1028.68
2018-09-26T05:49:31.326Z,1028.68
2018-09-26T05:50:31.244Z,1028.63
2018-09-26T05:51:31.162Z,1028.61
2018-09-26T05:52:31.085Z,1028.60
2018-09-26T05:53:31.064Z,1028.57
2018-09-26T05:54:30.923Z,1028.55
2018-09-26T05:55:30.846Z,1028.55
2018-09-26T05:56:30.762Z,1028.55
2018-09-26T05:57:30.686Z,1028.50
2018-09-26T05:58:30.605Z,1028.48
2018-09-26T05:59:30.532Z,1028.47
2018-09-26T06:00:30.445Z,1028.48
2018-09-26T06:01:30.364Z,1028.44
2018-09-26T06:02:30.297Z,1028.45
2018-09-26T06:03:30.207Z,1028.47
2018-09-26T06:04:30.134Z,1028.45
2018-09-26T06:05:30.085Z,1028.50
2018-09-26T06:06:29.963Z,1028.51
2018-09-26T06:07:29.889Z,1028.59
2018-09-26T06:08:29.806Z,1028.54
2018-09-26T06:09:29.728Z,1028.59
2018-09-26T06:10:29.646Z,1028.64
2018-09-26T06:11:29.570Z,1028.70
2018-09-26T06:12:29.487Z,1028.70
2018-09-26T06:13:29.408Z,1028.69
2018-09-26T06:14:29.340Z,1028.69
2018-09-26T06:15:29.248Z,1028.68
2018-09-26T06:16:29.173Z,1028.67
2018-09-26T06:17:29.091Z,1028.70
2018-09-26T06:18:29.009Z,1028.70
2018-09-26T06:19:28.932Z,1028.64
2018-09-26T06:20:28.851Z,1028.68
2018-09-26T06:21:28.771Z,1028.74
2018-09-26T06:22:28.691Z,1028.74
2018-09-26T06:23:28.616Z,1028.74
2018-09-26T06:24:28.553Z,1028.76
2018-09-26T06:25:28.453Z,1028.74
2018-09-26T06:26:28.375Z,1028.75
2018-09-26T06:27:28.293Z,1028.71
2018-09-26T06:28:28.217Z,1028.75
2018-09-26T06:29:28.138Z,1028.75
2018-09-26T06:30:28.063Z,1028.80
2018-09-26T06:31:27.980Z,1028.78
2018-09-26T06:32:27.897Z,1028.82
2018-09-26T06:33:27.816Z,1028.75
2018-09-26T06:34:27.737Z,1028.79
2018-09-26T06:35:27.662Z,1028.73
2018-09-26T06:36:27.578Z,1028.79
2018-09-26T06:37:27.498Z,1028.80
2018-09-26T06:38:27.422Z,1028.77
2018-09-26T06:39:27.343Z,1028.81
2018-09-26T06:40:27.311Z,1028.80
2018-09-26T06:41:27.182Z,1028.83
2018-09-26T06:42:27.102Z,1028.89
2018-09-26T06:43:27.023Z,1028.91
2018-09-26T06:44:26.943Z,1028.94
2018-09-26T06:45:26.864Z,1028.88
2018-09-26T06:46:26.784Z,1028.90
2018-09-26T06:47:26.755Z,1028.92
2018-09-26T06:48:26.627Z,1028.88
2018-09-26T06:49:26.549Z,1028.88
2018-09-26T06:50:26.468Z,1028.86
2018-09-26T06:51:26.391Z,1028.86
2018-09-26T06:52:26.307Z,1028.87
2018-09-26T06:53:26.229Z,1028.84
2018-09-26T06:54:26.153Z,1028.84
2018-09-26T06:55:26.071Z,1028.85
2018-09-26T06:56:26.000Z,1028.79
2018-09-26T06:57:25.916Z,1028.80
2018-09-26T06:58:25.834Z,1028.76
2018-09-26T06:59:25.758Z,1028.76
2018-09-26T07:00:25.749Z,1028.76
2018-09-26T07:01:25.599Z,1028.73
2018-09-26T07:02:25.517Z,1028.77
2018-09-26T07:03:25.444Z,1028.74
2018-09-26T07:04:25.367Z,1028.79
2018-09-26T07:05:25.282Z,1028.79
2018-09-26T07:06:25.200Z,1028.85
2018-09-26T07:07:25.127Z,1028.82
2018-09-26T07:08:25.046Z,1028.84
2018-09-26T07:09:24.969Z,1028.86
2018-09-26T07:10:24.889Z,1028.86
2018-09-26T07:11:24.815Z,1028.86
2018-09-26T07:12:24.732Z,1028.86
2018-09-26T07:13:24.652Z,1028.83
2018-09-26T07:14:24.573Z,1028.82
2018-09-26T07:15:24.497Z,1028.83
2018-09-26T07:16:24.417Z,1028.84
2018-09-26T07:17:24.345Z,1028.80
2018-09-26T07:18:24.261Z,1028.82
2018-09-26T07:19:24.185Z,1028.82
2018-09-26T07:20:24.103Z,1028.81
2018-09-26T07:21:24.027Z,1028.81
2018-09-26T07:22:23.944Z,1028.82
2018-09-26T07:23:23.870Z,1028.80
2018-09-26T07:24:23.790Z,1028.73
2018-09-26T07:25:23.711Z,1028.71
2018-09-26T07:26:23.635Z,1028.80
2018-09-26T07:27:23.557Z,1028.84
2018-09-26T07:28:23.478Z,1028.83
2018-09-26T07:29:23.399Z,1028.83
2018-09-26T07:30:23.323Z,1028.86
2018-09-26T07:31:23.261Z,1028.83
2018-09-26T07:32:23.166Z,1028.82
2018-09-26T07:33:23.089Z,1028.80
2018-09-26T07:34:23.011Z,1028.75
2018-09-26T07:35:22.933Z,1028.77
2018-09-26T07:36:22.856Z,1028.69
2018-09-26T07:37:22.777Z,1028.70
2018-09-26T07:38:22.711Z,1028.63
2018-09-26T07:39:22.622Z,1028.59
2018-09-26T07:40:22.544Z,1028.60
2018-09-26T07:41:22.465Z,1028.59
2018-09-26T07:42:22.389Z,1028.62
2018-09-26T07:43:22.309Z,1028.60
2018-09-26T07:44:22.232Z,1028.60
2018-09-26T07:45:22.213Z,1028.66
2018-09-26T07:46:22.078Z,1028.73
2018-09-26T07:47:22.000Z,1028.75
2018-09-26T07:48:21.921Z,1028.79
2018-09-26T07:49:21.843Z,1028.81
2018-09-26T07:50:21.774Z,1028.81
2018-09-26T07:51:21.699Z,1028.83
2018-09-26T07:52:21.612Z,1028.81
2018-09-26T07:53:21.536Z,1028.85
2018-09-26T07:54:21.458Z,1028.82
2018-09-26T07:55:21.379Z,1028.90
2018-09-26T07:56:21.302Z,1028.90
2018-09-26T07:57:21.222Z,1028.86
2018-09-26T07:58:21.147Z,1028.85
2018-09-26T07:59:21.068Z,1028.87
2018-09-26T08:00:20.992Z,1028.83
2018-09-26T08:01:20.926Z,1028.82
2018-09-26T08:02:20.836Z,1028.78
2018-09-26T08:03:20.760Z,1028.69
2018-09-26T08:04:20.685Z,1028.71
2018-09-26T08:05:20.608Z,1028.68
2018-09-26T08:06:20.530Z,1028.73
2018-09-26T08:07:20.456Z,1028.66
2018-09-26T08:08:20.375Z,1028.72
2018-09-26T08:09:20.302Z,1028.69
2018-09-26T08:10:20.221Z,1028.77
2018-09-26T08:11:20.210Z,1028.85
2018-09-26T08:12:20.080Z,1028.94
2018-09-26T08:13:19.989Z,1028.91
2018-09-26T08:14:19.919Z,1028.96
2018-09-26T08:15:19.840Z,1028.96
2018-09-26T08:16:19.761Z,1028.94
2018-09-26T08:17:19.685Z,1028.93
2018-09-26T08:18:19.647Z,1028.96
2018-09-26T08:19:19.529Z,1028.93
2018-09-26T08:20:19.455Z,1028.89
2018-09-26T08:21:19.375Z,1028.92
2018-09-26T08:22:19.298Z,1028.89
2018-09-26T08:23:19.223Z,1028.88
2018-09-26T08:24:19.207Z,1028.90
2018-09-26T08:25:19.069Z,1028.87
2018-09-26T08:26:18.995Z,1028.88
2018-09-26T08:27:18.917Z,1028.82
2018-09-26T08:28:18.840Z,1028.86
2018-09-26T08:29:18.764Z,1028.83
2018-09-26T08:30:18.688Z,1028.77
2018-09-26T08:31:18.616Z,1028.76
2018-09-26T08:32:18.536Z,1028.76
2018-09-26T08:33:18.461Z,1028.78
2018-09-26T08:34:18.384Z,1028.73
2018-09-26T08:35:18.305Z,1028.76
2018-09-26T08:36:18.231Z,1028.74
2018-09-26T08:37:18.153Z,1028.77
2018-09-26T08:38:18.078Z,1028.80
2018-09-26T08:39:18.001Z,1028.81
2018-09-26T08:40:17.922Z,1028.78
2018-09-26T08:41:17.852Z,1028.76
2018-09-26T08:42:17.778Z,1028.77
2018-09-26T08:43:17.697Z,1028.73
2018-09-26T08:44:17.626Z,1028.74
2018-09-26T08:45:17.547Z,1028.77
2018-09-26T08:46:17.473Z,1028.78
2018-09-26T08:47:17.398Z,1028.78
2018-09-26T08:48:17.319Z,1028.80
2018-09-26T08:49:17.252Z,1028.82
2018-09-26T08:50:17.171Z,1028.77
2018-09-26T08:51:17.097Z,1028.75
2018-09-26T08:52:17.016Z,1028.82
2018-09-26T08:53:16.944Z,1028.81
2018-09-26T08:54:16.876Z,1028.86
2018-09-26T08:55:16.796Z,1028.89
2018-09-26T08:56:16.714Z,1028.86
2018-09-26T08:57:16.642Z,1028.87
2018-09-26T08:58:16.566Z,1028.87
2018-09-26T08:59:16.502Z,1028.86
2018-09-26T09:00:16.415Z,1028.87
2018-09-26T09:01:16.346Z,1028.79
2018-09-26T09:02:16.266Z,1028.84
2018-09-26T09:03:16.192Z,1028.82
2018-09-26T09:04:16.119Z,1028.86
2018-09-26T09:05:16.041Z,1028.83
2018-09-26T09:06:16.029Z,1028.82
2018-09-26T09:07:15.892Z,1028.79
2018-09-26T09:08:15.820Z,1028.77
2018-09-26T09:09:15.750Z,1028.80
2018-09-26T09:10:15.672Z,1028.75
2018-09-26T09:11:15.608Z,1028.72
2018-09-26T09:12:15.521Z,1028.69
2018-09-26T09:13:15.444Z,1028.67
2018-09-26T09:14:15.431Z,1028.65
2018-09-26T09:15:15.299Z,1028.62
2018-09-26T09:16:15.227Z,1028.57
2018-09-26T09:17:15.150Z,1028.54
2018-09-26T09:18:15.077Z,1028.58
2018-09-26T09:19:15.002Z,1028.59
2018-09-26T09:20:14.931Z,1028.57
2018-09-26T09:21:14.859Z,1028.55
2018-09-26T09:22:14.781Z,1028.61
2018-09-26T09:23:14.706Z,1028.64
2018-09-26T09:24:14.639Z,1028.69
2018-09-26T09:25:14.559Z,1028.70
2018-09-26T09:26:14.540Z,1028.68
2018-09-26T09:27:14.464Z,1028.72
2018-09-26T09:28:14.337Z,1028.72
2018-09-26T09:29:14.266Z,1028.69
2018-09-26T09:30:14.192Z,1028.67
2018-09-26T09:31:14.114Z,1028.66
2018-09-26T09:32:14.047Z,1028.67
2018-09-26T09:33:13.965Z,1028.67
2018-09-26T09:34:13.899Z,1028.71
2018-09-26T09:35:13.830Z,1028.69
2018-09-26T09:36:13.746Z,1028.67
2018-09-26T09:37:13.674Z,1028.66
2018-09-26T09:38:13.647Z,1028.64
2018-09-26T09:39:13.526Z,1028.61
2018-09-26T09:40:13.453Z,1028.58
2018-09-26T09:41:13.380Z,1028.59
2018-09-26T09:42:13.306Z,1028.64
2018-09-26T09:43:13.244Z,1028.61
2018-09-26T09:44:13.216Z,1028.65
2018-09-26T09:45:13.088Z,1028.64
2018-09-26T09:46:13.017Z,1028.61
2018-09-26T09:47:12.941Z,1028.60
2018-09-26T09:48:12.867Z,1028.57
2018-09-26T09:49:12.791Z,1028.54
2018-09-26T09:50:12.748Z,1028.53
2018-09-26T09:51:12.655Z,1028.55
2018-09-26T09:52:12.577Z,1028.53
2018-09-26T09:53:12.504Z,1028.56
2018-09-26T09:54:12.434Z,1028.54
2018-09-26T09:55:12.360Z,1028.56
2018-09-26T09:56:12.293Z,1028.50
2018-09-26T09:57:12.213Z,1028.48
2018-09-26T09:58:12.141Z,1028.49
2018-09-26T09:59:12.074Z,1028.44
2018-09-26T10:00:12.007Z,1028.42
2018-09-26T10:01:11.928Z,1028.40
2018-09-26T10:02:11.867Z,1028.39
2018-09-26T10:03:11.847Z,1028.39
2018-09-26T10:04:11.706Z,1028.42
2018-09-26T10:05:11.633Z,1028.42
2018-09-26T10:06:11.562Z,1028.44
2018-09-26T10:07:11.490Z,1028.42
2018-09-26T10:08:11.439Z,1028.42
2018-09-26T10:09:11.347Z,1028.42
2018-09-26T10:10:11.273Z,1028.37
2018-09-26T10:11:11.202Z,1028.36
2018-09-26T10:12:11.129Z,1028.34
2018-09-26T10:13:11.060Z,1028.36
2018-09-26T10:14:10.997Z,1028.36
2018-09-26T10:15:10.912Z,1028.36
2018-09-26T10:16:10.844Z,1028.39
2018-09-26T10:17:10.773Z,1028.40
2018-09-26T10:18:10.696Z,1028.38
2018-09-26T10:19:10.625Z,1028.40
2018-09-26T10:20:10.621Z,1028.42
2018-09-26T10:21:10.479Z,1028.45
2018-09-26T10:22:10.422Z,1028.45
2018-09-26T10:23:10.337Z,1028.46
2018-09-26T10:24:10.264Z,1028.47
2018-09-26T10:25:10.218Z,1028.44
2018-09-26T10:26:10.176Z,1028.40
2018-09-26T10:27:10.051Z,1028.47
2018-09-26T10:28:09.981Z,1028.44
2018-09-26T10:29:09.912Z,1028.46
2018-09-26T10:30:09.835Z,1028.45
2018-09-26T10:31:09.762Z,1028.48
2018-09-26T10:32:09.706Z,1028.47
2018-09-26T10:33:09.620Z,1028.50
2018-09-26T10:34:09.542Z,1028.48
2018-09-26T10:35:09.470Z,1028.45
2018-09-26T10:36:09.400Z,1028.46
2018-09-26T10:37:09.326Z,1028.43
2018-09-26T10:38:09.329Z,1028.44
2018-09-26T10:39:09.185Z,1028.44
2018-09-26T10:40:09.112Z,1028.42
2018-09-26T10:41:09.039Z,1028.41
2018-09-26T10:42:08.968Z,1028.40
2018-09-26T10:43:08.895Z,1028.38
2018-09-26T10:44:08.830Z,1028.31
2018-09-26T10:45:08.756Z,1028.35
2018-09-26T10:46:08.681Z,1028.35
2018-09-26T10:47:08.607Z,1028.31
2018-09-26T10:48:08.535Z,1028.33
2018-09-26T10:49:08.464Z,1028.30
2018-09-26T10:50:08.418Z,1028.32
2018-09-26T10:51:08.320Z,1028.29
2018-09-26T10:52:08.248Z,1028.32
2018-09-26T10:53:08.176Z,1028.32
2018-09-26T10:54:08.102Z,1028.34
2018-09-26T10:55:08.033Z,1028.33
2018-09-26T10:56:08.022Z,1028.37
2018-09-26T10:57:07.936Z,1028.41
2018-09-26T10:58:07.814Z,1028.38
2018-09-26T10:59:07.740Z,1028.36
2018-09-26T11:00:07.671Z,1028.36
2018-09-26T11:01:07.597Z,1028.37
2018-09-26T11:02:07.602Z,1028.35
2018-09-26T11:03:07.455Z,1028.33
2018-09-26T11:04:07.440Z,1028.26
2018-09-26T11:05:07.313Z,1028.22
2018-09-26T11:06:07.239Z,1028.24
2018-09-26T11:07:07.164Z,1028.24
2018-09-26T11:08:07.109Z,1028.28
2018-09-26T11:09:07.020Z,1028.24
2018-09-26T11:10:06.991Z,1028.27
2018-09-26T11:11:06.876Z,1028.27
2018-09-26T11:12:06.804Z,1028.28
2018-09-26T11:13:06.732Z,1028.29
2018-09-26T11:14:06.705Z,1028.26
2018-09-26T11:15:06.612Z,1028.29
2018-09-26T11:16:06.569Z,1028.30
2018-09-26T11:17:06.442Z,1028.28
2018-09-26T11:18:06.369Z,1028.29
2018-09-26T11:19:06.299Z,1028.24
2018-09-26T11:20:06.245Z,1028.24
2018-09-26T11:21:06.183Z,1028.26
2018-09-26T11:22:06.123Z,1028.21
2018-09-26T11:23:06.008Z,1028.24
2018-09-26T11:24:05.937Z,1028.20
2018-09-26T11:25:05.864Z,1028.21
2018-09-26T11:26:05.819Z,1028.20
2018-09-26T11:27:05.721Z,1028.20
2018-09-26T11:28:05.648Z,1028.17
2018-09-26T11:29:05.575Z,1028.13
2018-09-26T11:30:05.504Z,1028.17
2018-09-26T11:31:05.431Z,1028.19
2018-09-26T11:32:05.369Z,1028.18
2018-09-26T11:33:05.285Z,1028.20
2018-09-26T11:34:05.225Z,1028.23
2018-09-26T11:35:05.141Z,1028.25
2018-09-26T11:36:05.071Z,1028.20
2018-09-26T11:37:04.996Z,1028.23
2018-09-26T11:38:04.977Z,1028.22
2018-09-26T11:39:04.853Z,1028.16
2018-09-26T11:40:04.789Z,1028.14
2018-09-26T11:41:04.708Z,1028.14
2018-09-26T11:42:04.636Z,1028.13
2018-09-26T11:43:04.564Z,1028.12
2018-09-26T11:44:04.510Z,1028.13
2018-09-26T11:45:04.421Z,1028.07
2018-09-26T11:46:04.351Z,1028.06
2018-09-26T11:47:04.277Z,1028.04
2018-09-26T11:48:04.205Z,1028.04
2018-09-26T11:49:04.139Z,1028.06
2018-09-26T11:50:04.064Z,1028.05
2018-09-26T11:51:03.992Z,1028.02
2018-09-26T11:52:03.918Z,1027.99
2018-09-26T11:53:03.847Z,1027.99
2018-09-26T11:54:03.776Z,1027.96
2018-09-26T11:55:03.702Z,1027.92
2018-09-26T11:56:03.706Z,1027.88
2018-09-26T11:57:03.558Z,1027.86
2018-09-26T11:58:03.488Z,1027.87
2018-09-26T11:59:03.415Z,1027.79
2018-09-26T12:00:03.343Z,1027.82
2018-09-26T12:01:03.271Z,1027.88
2018-09-26T12:02:03.254Z,1027.87
2018-09-26T12:03:03.131Z,1027.87
2018-09-26T12:04:03.063Z,1027.87
2018-09-26T12:05:02.981Z,1027.85